Time;durP1;ratioP1;P1;durP2;ratioP2;P2;SDS_P1;SDS_P2;PMS_P1;PMS_P2;Temp;Humidity;BMP_temperature;BMP_pressure;BME280_temperature;BME280_humidity;BME280_pressure;Samples;Min_cycle;Max_cycle;Signal;HPM_P1;HPM_P2
2022/08/25 00:00:19;;;;;;;12.00;9.05;;;21.50;99.90;;;;;;5102635;27;38595;-60
2022/08/25 00:02:47;;;;;;;11.23;8.65;;;21.50;99.90;;;;;;5102883;27;38999;-60
2022/08/25 00:05:14;;;;;;;15.73;8.68;;;21.50;99.90;;;;;;5103627;27;36295;-60
2022/08/25 00:07:41;;;;;;;11.88;7.30;;;21.50;99.90;;;;;;5105575;27;37631;-60
2022/08/25 00:10:09;;;;;;;8.65;6.03;;;21.50;99.90;;;;;;5104990;27;36310;-60
2022/08/25 00:12:38;;;;;;;10.20;6.13;;;21.50;99.90;;;;;;5104631;27;37380;-60
2022/08/25 00:15:08;;;;;;;10.00;6.13;;;21.50;99.90;;;;;;5104537;27;36160;-60
2022/08/25 00:17:35;;;;;;;9.90;5.88;;;21.50;99.90;;;;;;5103711;27;37201;-60
2022/08/25 00:20:04;;;;;;;12.75;6.10;;;21.50;99.90;;;;;;5103944;27;36532;-60
2022/08/25 00:22:31;;;;;;;9.93;5.75;;;21.50;99.90;;;;;;5104422;27;38300;-60
2022/08/25 00:24:58;;;;;;;12.55;5.55;;;21.50;99.90;;;;;;5104643;27;37276;-60
2022/08/25 00:27:26;;;;;;;14.15;5.80;;;21.50;99.90;;;;;;5103903;27;37404;-60
2022/08/25 00:29:54;;;;;;;8.57;5.32;;;21.50;99.90;;;;;;5103511;27;36870;-60
2022/08/25 00:32:23;;;;;;;10.75;5.50;;;21.50;99.90;;;;;;5105172;27;37634;-60
2022/08/25 00:34:50;;;;;;;7.63;5.15;;;21.50;99.90;;;;;;5103134;27;36084;-60
2022/08/25 00:37:18;;;;;;;9.15;5.25;;;21.50;99.80;;;;;;5104906;27;37212;-60
2022/08/25 00:39:45;;;;;;;10.30;5.03;;;21.40;99.80;;;;;;5103633;27;36538;-60
2022/08/25 00:42:13;;;;;;;7.70;4.45;;;21.40;99.70;;;;;;5104910;27;39174;-60
2022/08/25 00:44:42;;;;;;;8.23;4.63;;;21.30;99.60;;;;;;5103086;27;37786;-60
2022/08/25 00:47:11;;;;;;;8.63;4.25;;;21.30;99.70;;;;;;5103558;27;36007;-60
2022/08/25 00:49:44;;;;;;;7.22;4.03;;;21.30;99.60;;;;;;5104934;27;20202;-60
2022/08/25 00:52:14;;;;;;;15.15;4.93;;;21.30;99.40;;;;;;5103746;27;37524;-60
2022/08/25 00:54:47;;;;;;;7.18;4.50;;;21.30;99.30;;;;;;5103445;27;38699;-60
2022/08/25 00:57:18;;;;;;;6.47;4.40;;;21.30;99.20;;;;;;5104297;27;37342;-60
2022/08/25 00:59:45;;;;;;;11.70;4.10;;;21.30;99.20;;;;;;5102948;27;36506;-60
2022/08/25 01:02:15;;;;;;;8.75;4.15;;;21.30;99.20;;;;;;5103693;27;36346;-60
2022/08/25 01:04:44;;;;;;;13.68;4.85;;;21.30;99.20;;;;;;5103453;27;37419;-60
2022/08/25 01:07:11;;;;;;;9.55;4.47;;;21.30;99.30;;;;;;5103742;27;37562;-60
2022/08/25 01:09:39;;;;;;;10.57;4.75;;;21.30;99.30;;;;;;5104077;27;37240;-60
2022/08/25 01:12:07;;;;;;;8.77;4.60;;;21.30;99.40;;;;;;5103867;27;36424;-60
2022/08/25 01:14:35;;;;;;;8.45;4.47;;;21.30;99.50;;;;;;5103773;27;36478;-60
2022/08/25 01:17:02;;;;;;;9.18;4.03;;;21.20;99.50;;;;;;5103875;27;37802;-60
2022/08/25 01:19:32;;;;;;;10.75;4.38;;;21.20;99.50;;;;;;5103725;27;37714;-60
2022/08/25 01:22:01;;;;;;;7.00;4.10;;;21.20;99.50;;;;;;5102844;27;37840;-60
2022/08/25 01:24:35;;;;;;;5.63;3.78;;;21.10;99.50;;;;;;5102980;27;38659;-60
2022/08/25 01:27:02;;;;;;;8.73;4.38;;;21.10;99.50;;;;;;5103579;27;37575;-60
2022/08/25 01:29:30;;;;;;;7.70;4.30;;;21.10;99.50;;;;;;5103116;27;37991;-60
2022/08/25 01:31:59;;;;;;;12.43;4.75;;;21.10;99.40;;;;;;5103556;27;36109;-61
2022/08/25 01:34:29;;;;;;;6.40;3.83;;;21.10;99.30;;;;;;5103701;27;38891;-60
2022/08/25 01:36:57;;;;;;;9.98;3.75;;;21.00;99.30;;;;;;5103442;27;37668;-60
2022/08/25 01:39:29;;;;;;;9.85;4.70;;;20.90;99.30;;;;;;5103653;27;36602;-60
2022/08/25 01:42:12;;;;;;;9.65;4.10;;;20.90;99.20;;;;;;5103215;27;39086;-60
2022/08/25 01:44:40;;;;;;;;;;;20.90;99.20;;;;;;5104511;27;39371;-60
2022/08/25 01:47:08;;;;;;;8.05;4.15;;;20.80;98.90;;;;;;5103867;27;36515;-60
2022/08/25 01:49:35;;;;;;;9.57;4.57;;;20.70;99.20;;;;;;5103277;27;36184;-60
2022/08/25 01:52:12;;;;;;;9.38;4.18;;;20.70;99.00;;;;;;5107681;27;38926;-60
2022/08/25 01:54:40;;;;;;;8.13;3.92;;;20.70;98.90;;;;;;5107320;27;37345;-60
2022/08/25 01:57:08;;;;;;;9.60;4.38;;;20.70;98.90;;;;;;5106818;27;36832;-60
2022/08/25 01:59:36;;;;;;;6.47;4.15;;;20.70;98.80;;;;;;5106737;27;37432;-60
2022/08/25 02:02:03;;;;;;;6.20;3.22;;;20.60;98.90;;;;;;5105328;27;36452;-60
2022/08/25 02:04:31;;;;;;;10.73;3.80;;;20.60;99.00;;;;;;5106813;27;37805;-60
2022/08/25 02:06:59;;;;;;;7.13;4.03;;;20.70;98.90;;;;;;5106837;27;37923;-60
2022/08/25 02:09:26;;;;;;;12.43;4.45;;;20.60;98.90;;;;;;5106039;27;36505;-60
2022/08/25 02:11:55;;;;;;;8.23;3.88;;;20.70;98.80;;;;;;5107481;27;40043;-60
2022/08/25 02:14:23;;;;;;;7.32;3.85;;;20.60;98.70;;;;;;5105684;27;36086;-60
2022/08/25 02:16:52;;;;;;;10.52;4.07;;;20.60;98.70;;;;;;5106879;27;37148;-60
2022/08/25 02:19:22;;;;;;;9.60;4.32;;;20.60;98.70;;;;;;5105405;27;35408;-60
2022/08/25 02:21:49;;;;;;;10.57;3.70;;;20.60;98.70;;;;;;5106581;27;37620;-60
2022/08/25 02:24:17;;;;;;;8.98;4.15;;;20.60;98.70;;;;;;5104517;27;37194;-60
2022/08/25 02:26:45;;;;;;;8.18;3.65;;;20.50;98.60;;;;;;5106654;27;37294;-60
2022/08/25 02:29:15;;;;;;;7.07;3.50;;;20.50;98.60;;;;;;5105913;27;36468;-60
2022/08/25 02:31:43;;;;;;;8.27;3.83;;;20.50;98.70;;;;;;5104975;27;39302;-61
2022/08/25 02:34:11;;;;;;;6.55;3.47;;;20.50;98.70;;;;;;5105973;27;36032;-60
2022/08/25 02:36:39;;;;;;;8.07;3.58;;;20.50;98.70;;;;;;5106856;27;38799;-60
2022/08/25 02:39:09;;;;;;;6.55;3.58;;;20.50;98.60;;;;;;5106976;27;37026;-60
2022/08/25 02:41:37;;;;;;;7.68;3.17;;;20.50;98.60;;;;;;5105630;27;36181;-60
2022/08/25 02:44:05;;;;;;;8.73;4.15;;;20.50;98.50;;;;;;5106587;27;36169;-61
2022/08/25 02:46:35;;;;;;;8.77;3.60;;;20.50;98.40;;;;;;5105651;27;36809;-60
2022/08/25 02:49:03;;;;;;;7.10;3.75;;;20.50;98.30;;;;;;5106267;27;36423;-60
2022/08/25 02:51:30;;;;;;;9.07;4.22;;;20.50;98.30;;;;;;5105524;27;36437;-60
2022/08/25 02:54:00;;;;;;;8.50;3.50;;;20.50;98.30;;;;;;5106645;27;38906;-60
2022/08/25 02:56:29;;;;;;;7.80;3.67;;;20.40;98.30;;;;;;5106926;27;36887;-60
2022/08/25 02:58:56;;;;;;;8.18;4.35;;;20.40;98.40;;;;;;5104854;27;38047;-60
2022/08/25 03:01:24;;;;;;;6.55;4.13;;;20.40;98.30;;;;;;5104676;27;39283;-60
2022/08/25 03:03:52;;;;;;;7.53;3.50;;;20.40;98.30;;;;;;5104366;27;38004;-60
2022/08/25 03:06:23;;;;;;;8.32;3.65;;;20.30;98.30;;;;;;5106375;27;37049;-60
2022/08/25 03:08:50;;;;;;;9.63;3.72;;;20.30;98.20;;;;;;5106580;27;37643;-60
2022/08/25 03:11:18;;;;;;;6.97;3.80;;;20.30;98.20;;;;;;5105601;27;37137;-60
2022/08/25 03:13:48;;;;;;;8.45;4.07;;;20.20;98.10;;;;;;5106594;27;38450;-60
2022/08/25 03:16:15;;;;;;;8.85;3.85;;;20.20;98.20;;;;;;5104009;27;37779;-60
2022/08/25 03:18:43;;;;;;;8.27;3.15;;;20.10;98.30;;;;;;5106254;27;36716;-60
2022/08/25 03:21:12;;;;;;;6.80;3.47;;;20.10;98.40;;;;;;5105718;27;38690;-60
2022/08/25 03:23:40;;;;;;;7.60;3.85;;;20.10;98.50;;;;;;5106655;27;38499;-60
2022/08/25 03:28:54;;;;;;;7.03;3.55;;;20.10;98.50;;;;;;5106478;27;38409;-60
2022/08/25 03:31:22;;;;;;;10.20;4.03;;;20.10;98.50;;;;;;5103484;27;37493;-60
2022/08/25 03:33:49;;;;;;;6.70;3.38;;;20.10;98.40;;;;;;5105448;27;37247;-60
2022/08/25 03:36:18;;;;;;;15.25;4.47;;;20.10;98.50;;;;;;5105655;27;37920;-60
2022/08/25 03:38:45;;;;;;;6.32;3.55;;;20.10;98.40;;;;;;5106045;27;36444;-60
2022/08/25 03:41:15;;;;;;;9.38;4.22;;;20.00;98.50;;;;;;5105495;27;36395;-60
2022/08/25 03:43:43;;;;;;;8.48;4.22;;;20.00;98.60;;;;;;5106225;27;39771;-60
2022/08/25 03:46:16;;;;;;;6.53;3.78;;;20.00;98.60;;;;;;5102663;27;36992;-60
2022/08/25 03:48:43;;;;;;;7.70;3.50;;;20.00;98.60;;;;;;5105391;27;35671;-60
2022/08/25 03:51:11;;;;;;;9.75;3.70;;;20.00;98.60;;;;;;5105418;27;37954;-60
2022/08/25 03:53:39;;;;;;;10.77;4.15;;;20.00;98.60;;;;;;5103729;27;38286;-60
2022/08/25 03:56:07;;;;;;;11.35;3.63;;;20.00;98.60;;;;;;5103830;27;37502;-60
2022/08/25 03:58:34;;;;;;;10.13;4.13;;;20.00;98.70;;;;;;5104905;27;35269;-59
2022/08/25 04:01:01;;;;;;;6.22;3.65;;;20.00;98.70;;;;;;5104131;27;37383;-60
2022/08/25 04:03:28;;;;;;;6.03;3.40;;;19.90;98.70;;;;;;5103518;27;38166;-60
2022/08/25 04:06:00;;;;;;;8.93;3.90;;;20.00;98.80;;;;;;5103514;27;38901;-60
2022/08/25 04:08:27;;;;;;;14.70;3.85;;;20.00;98.80;;;;;;5104750;27;36161;-60
2022/08/25 04:10:56;;;;;;;9.18;4.15;;;19.90;98.80;;;;;;5103925;27;39461;-60
2022/08/25 04:13:24;;;;;;;10.73;3.42;;;19.90;98.80;;;;;;5102967;27;37328;-60
2022/08/25 04:15:51;;;;;;;8.57;3.90;;;19.90;98.80;;;;;;5104081;27;36936;-60
2022/08/25 04:18:18;;;;;;;9.88;3.70;;;19.90;98.80;;;;;;5104928;27;36659;-60
2022/08/25 04:20:46;;;;;;;7.57;3.33;;;19.90;98.80;;;;;;5104455;27;37970;-60
2022/08/25 04:23:13;;;;;;;8.70;4.05;;;19.90;98.70;;;;;;5104469;27;36265;-60
2022/08/25 04:25:41;;;;;;;7.97;3.53;;;20.00;98.70;;;;;;5103132;27;35826;-60
2022/08/25 04:28:10;;;;;;;11.02;4.07;;;19.90;98.70;;;;;;5103931;27;36607;-60
2022/08/25 04:30:42;;;;;;;9.48;3.80;;;19.90;98.60;;;;;;5104010;27;38897;-60
2022/08/25 04:33:09;;;;;;;7.05;3.50;;;19.90;98.60;;;;;;5104713;27;37429;-60
2022/08/25 04:35:36;;;;;;;9.52;4.00;;;19.90;98.60;;;;;;5103763;27;38869;-60
2022/08/25 04:38:04;;;;;;;8.95;4.03;;;19.90;98.50;;;;;;5102728;27;35266;-60
2022/08/25 04:40:31;;;;;;;10.40;3.70;;;20.00;98.50;;;;;;5103977;27;37438;-60
2022/08/25 04:42:59;;;;;;;10.77;3.80;;;19.90;98.50;;;;;;5103681;27;36102;-60
2022/08/25 04:45:27;;;;;;;7.22;3.90;;;19.90;98.50;;;;;;5105333;27;36874;-60
2022/08/25 04:47:59;;;;;;;14.23;3.88;;;19.90;98.70;;;;;;5103219;27;35382;-60
2022/08/25 04:50:26;;;;;;;10.50;4.13;;;19.90;98.50;;;;;;5104126;27;36443;-60
2022/08/25 04:52:54;;;;;;;8.57;3.80;;;19.90;98.50;;;;;;5104106;27;37486;-60
2022/08/25 04:55:21;;;;;;;7.82;3.60;;;19.90;98.50;;;;;;5103034;27;38463;-60
2022/08/25 04:57:48;;;;;;;16.63;4.68;;;19.90;98.40;;;;;;5104812;27;36724;-60
2022/08/25 05:00:17;;;;;;;9.38;3.40;;;19.90;98.40;;;;;;5103783;27;37367;-60
2022/08/25 05:02:46;;;;;;;10.23;3.92;;;19.90;98.40;;;;;;5102154;27;38485;-60
2022/08/25 05:05:13;;;;;;;8.63;3.80;;;20.00;98.40;;;;;;5103268;27;36620;-61
2022/08/25 05:07:40;;;;;;;8.18;4.03;;;20.10;98.40;;;;;;5102859;27;36904;-60
2022/08/25 05:10:08;;;;;;;8.38;4.47;;;20.00;98.40;;;;;;5103883;27;37566;-60
2022/08/25 05:12:35;;;;;;;6.53;3.63;;;20.00;98.30;;;;;;5102903;27;38053;-60
2022/08/25 05:15:49;;;;;;;6.82;3.90;;;20.00;98.30;;;;;;5104259;27;35746;-60
2022/08/25 05:17:52;;;;;;;8.25;4.00;;;20.10;98.40;;;;;;5103437;27;36976;-60
2022/08/25 05:20:19;;;;;;;7.38;4.13;;;20.10;98.40;;;;;;5103565;27;37638;-59
2022/08/25 05:22:46;;;;;;;9.45;3.42;;;20.30;98.50;;;;;;5102913;27;36978;-60
2022/08/25 05:25:14;;;;;;;8.95;4.10;;;20.40;98.40;;;;;;5106663;27;36502;-60
2022/08/25 05:27:42;;;;;;;8.25;4.43;;;20.40;98.20;;;;;;5107017;27;37168;-60
2022/08/25 05:30:11;;;;;;;7.97;4.72;;;20.50;98.20;;;;;;5106561;27;38503;-59
2022/08/25 05:32:39;;;;;;;9.45;4.32;;;20.70;98.00;;;;;;5106491;27;37135;-60
2022/08/25 05:35:08;;;;;;;8.93;4.47;;;20.90;97.80;;;;;;5106960;27;36893;-60
2022/08/25 05:37:36;;;;;;;8.07;3.85;;;21.20;97.50;;;;;;5104778;27;36736;-59
2022/08/25 05:40:05;;;;;;;7.97;4.50;;;21.30;97.40;;;;;;5104552;27;37368;-60
2022/08/25 05:42:32;;;;;;;11.77;4.88;;;21.40;97.30;;;;;;5105483;27;39162;-60
2022/08/25 05:45:00;;;;;;;12.82;4.80;;;21.40;97.20;;;;;;5105660;27;37027;-60
2022/08/25 05:47:27;;;;;;;10.73;4.90;;;21.50;97.00;;;;;;5107049;27;36093;-60
2022/08/25 05:49:55;;;;;;;14.10;4.68;;;21.60;96.90;;;;;;5105715;27;37646;-60
2022/08/25 05:52:23;;;;;;;10.60;4.25;;;21.60;97.00;;;;;;5107099;27;37177;-60
2022/08/25 05:54:51;;;;;;;11.77;4.63;;;21.60;96.90;;;;;;5106107;27;36902;-60
2022/08/25 05:57:18;;;;;;;6.82;4.00;;;21.70;96.90;;;;;;5105498;27;36041;-61
2022/08/25 05:59:45;;;;;;;7.85;4.63;;;21.70;96.90;;;;;;5104921;27;37566;-59
2022/08/25 06:04:58;;;;;;;8.95;4.13;;;21.80;96.90;;;;;;5106995;27;37962;-59
2022/08/25 06:07:26;;;;;;;8.23;3.95;;;21.80;96.70;;;;;;5106170;27;35350;-60
2022/08/25 06:09:54;;;;;;;8.85;4.32;;;21.80;96.70;;;;;;5105877;27;36420;-60
2022/08/25 06:12:21;;;;;;;8.95;4.40;;;21.80;96.70;;;;;;5107088;27;39548;-60
2022/08/25 06:14:48;;;;;;;10.63;4.20;;;21.90;96.80;;;;;;5107350;27;38271;-60
2022/08/25 06:17:16;;;;;;;14.35;4.40;;;21.90;96.80;;;;;;5105823;27;36389;-60
2022/08/25 06:19:44;;;;;;;9.90;4.60;;;21.90;96.80;;;;;;5106004;27;39479;-60
2022/08/25 06:22:11;;;;;;;15.55;5.05;;;21.90;96.70;;;;;;5104825;27;37277;-60
2022/08/25 06:24:40;;;;;;;7.75;4.60;;;22.00;96.70;;;;;;5105641;27;35961;-60
2022/08/25 06:27:07;;;;;;;9.48;4.00;;;22.00;96.30;;;;;;5105135;27;37445;-60
2022/08/25 06:29:34;;;;;;;11.60;4.70;;;22.00;96.10;;;;;;5106449;27;38396;-60
2022/08/25 06:32:02;;;;;;;8.32;4.55;;;22.00;96.20;;;;;;5105510;27;37438;-60
2022/08/25 06:34:29;;;;;;;8.55;4.50;;;22.00;96.40;;;;;;5106621;27;36905;-60
2022/08/25 06:36:56;;;;;;;9.95;4.65;;;22.00;96.50;;;;;;5106147;27;36435;-60
2022/08/25 06:39:23;;;;;;;8.95;4.80;;;22.10;96.20;;;;;;5105512;27;36481;-59
2022/08/25 06:41:53;;;;;;;7.65;4.03;;;22.10;96.10;;;;;;5106986;27;39217;-60
2022/08/25 06:44:21;;;;;;;12.13;4.50;;;22.20;96.10;;;;;;5106418;27;37598;-60
2022/08/25 06:46:49;;;;;;;8.70;4.75;;;22.20;95.90;;;;;;5104886;27;36409;-60
2022/08/25 06:49:17;;;;;;;10.43;4.85;;;22.20;95.90;;;;;;5106929;27;36900;-60
2022/08/25 06:51:44;;;;;;;10.77;4.53;;;22.20;95.90;;;;;;5105044;27;38247;-60
2022/08/25 06:54:12;;;;;;;9.02;5.05;;;22.20;96.10;;;;;;5105171;27;35898;-60
2022/08/25 06:56:41;;;;;;;6.95;3.95;;;22.20;96.00;;;;;;5106214;27;36508;-60
2022/08/25 06:59:10;;;;;;;7.53;4.47;;;22.30;96.10;;;;;;5106033;27;37275;-60
2022/08/25 07:01:37;;;;;;;11.90;4.65;;;22.30;96.30;;;;;;5102121;27;37416;-61
2022/08/25 07:04:06;;;;;;;7.68;4.25;;;22.30;96.50;;;;;;5105709;27;39588;-60
2022/08/25 07:06:35;;;;;;;10.35;4.43;;;22.40;96.30;;;;;;5105899;27;37264;-60
2022/08/25 07:09:04;;;;;;;8.00;4.90;;;22.40;96.10;;;;;;5106382;27;36346;-60
2022/08/25 07:11:33;;;;;;;8.30;4.35;;;22.50;96.00;;;;;;5105709;27;38031;-60
2022/08/25 07:14:01;;;;;;;7.68;4.15;;;22.50;95.80;;;;;;5105026;27;37186;-60
2022/08/25 07:16:31;;;;;;;9.40;4.13;;;22.50;95.70;;;;;;5103984;27;36565;-60
2022/08/25 07:18:59;;;;;;;9.45;4.90;;;22.50;95.80;;;;;;5104621;27;37924;-59
2022/08/25 07:21:27;;;;;;;11.75;4.13;;;22.60;95.80;;;;;;5104525;27;37178;-59
2022/08/25 07:23:57;;;;;;;9.68;4.47;;;22.60;95.80;;;;;;5105220;27;37057;-60
2022/08/25 07:26:27;;;;;;;9.15;4.85;;;22.70;95.60;;;;;;5105315;27;36089;-59
2022/08/25 07:28:55;;;;;;;9.52;3.88;;;22.70;96.00;;;;;;5104465;27;37523;-60
2022/08/25 07:31:23;;;;;;;7.47;4.65;;;22.80;95.70;;;;;;5103520;27;37691;-59
2022/08/25 07:36:47;;;;;;;10.18;4.60;;;23.00;95.70;;;;;;5061251;28;37917;-60
2022/08/25 07:39:16;;;;;;;8.93;4.90;;;23.00;95.50;;;;;;5093986;27;37246;-60
2022/08/25 07:41:43;;;;;;;7.35;4.40;;;23.10;95.30;;;;;;5104266;27;37163;-60
2022/08/25 07:44:12;;;;;;;8.77;4.72;;;23.10;95.40;;;;;;5104544;27;37163;-60
2022/08/25 07:46:40;;;;;;;10.63;5.00;;;23.20;95.20;;;;;;5101771;27;37394;-60
2022/08/25 07:49:09;;;;;;;6.43;3.97;;;23.20;95.20;;;;;;5102261;27;37834;-60
2022/08/25 07:51:36;;;;;;;9.35;4.68;;;23.30;94.80;;;;;;5104209;27;37412;-60
2022/08/25 07:54:05;;;;;;;8.63;4.50;;;23.30;94.90;;;;;;5102879;27;37059;-60
2022/08/25 07:56:33;;;;;;;12.45;5.05;;;23.40;95.00;;;;;;5103516;27;35205;-60
2022/08/25 07:59:00;;;;;;;12.45;4.80;;;23.40;95.00;;;;;;5101585;27;37667;-60
2022/08/25 08:01:27;;;;;;;10.15;4.10;;;23.50;94.80;;;;;;5104568;27;36168;-59
2022/08/25 08:03:55;;;;;;;8.80;4.40;;;23.50;94.50;;;;;;5104688;27;38147;-60
2022/08/25 08:06:24;;;;;;;8.43;4.72;;;23.60;94.10;;;;;;5104852;27;35545;-60
2022/08/25 08:08:53;;;;;;;10.75;3.78;;;23.60;94.30;;;;;;5105316;27;37326;-60
2022/08/25 08:11:26;;;;;;;12.13;4.90;;;23.70;94.60;;;;;;5103434;27;37385;-60
2022/08/25 08:13:55;;;;;;;10.13;4.35;;;23.70;94.70;;;;;;5105723;27;37370;-59
2022/08/25 08:16:24;;;;;;;12.80;5.13;;;23.90;94.90;;;;;;5104235;27;37213;-60
2022/08/25 08:18:52;;;;;;;8.00;3.85;;;23.90;94.90;;;;;;5104477;27;37690;-60
2022/08/25 08:21:23;;;;;;;9.45;4.07;;;24.00;94.10;;;;;;5105316;27;36091;-60
2022/08/25 08:23:53;;;;;;;7.53;3.80;;;24.00;93.80;;;;;;5103840;27;39102;-60
2022/08/25 08:26:21;;;;;;;9.45;3.90;;;24.20;93.70;;;;;;5104304;27;37528;-60
2022/08/25 08:28:49;;;;;;;9.18;4.07;;;24.30;94.10;;;;;;5105004;27;37466;-60
2022/08/25 08:31:18;;;;;;;10.20;4.40;;;24.30;93.40;;;;;;5103115;27;37186;-60
2022/08/25 08:33:46;;;;;;;8.68;3.97;;;24.40;93.40;;;;;;5105234;27;36942;-60
2022/08/25 08:36:14;;;;;;;11.10;3.90;;;24.60;93.20;;;;;;5104526;27;37103;-60
2022/08/25 08:38:43;;;;;;;6.72;3.67;;;24.70;93.00;;;;;;5104969;27;38446;-60
2022/08/25 08:44:20;;;;;;;7.80;3.60;;;25.10;92.30;;;;;;5104743;27;38649;-60
2022/08/25 08:46:56;;;;;;;13.30;4.47;;;25.30;92.10;;;;;;5104221;27;35250;-60
2022/08/25 08:49:31;;;;;;;6.65;3.65;;;25.30;92.30;;;;;;5104679;27;37699;-60
2022/08/25 08:52:01;;;;;;;17.55;4.40;;;25.40;92.20;;;;;;5101734;27;37172;-60
2022/08/25 08:54:33;;;;;;;11.95;4.50;;;25.40;92.20;;;;;;5104944;27;35883;-60
2022/08/25 08:57:11;;;;;;;26.55;4.18;;;25.40;92.10;;;;;;5103261;27;36510;-60
2022/08/25 08:59:48;;;;;;;9.27;3.67;;;25.50;91.80;;;;;;5101418;27;38368;-60
2022/08/25 09:02:25;;;;;;;7.10;3.50;;;25.50;91.60;;;;;;5104268;27;36231;-60
2022/08/25 09:04:55;;;;;;;9.68;3.72;;;25.70;91.50;;;;;;5102816;27;37857;-60
2022/08/25 09:07:30;;;;;;;5.78;2.97;;;25.80;91.40;;;;;;5104158;27;37020;-60
2022/08/25 09:09:58;;;;;;;8.07;3.53;;;25.80;91.20;;;;;;5103210;27;39192;-60
2022/08/25 09:12:35;;;;;;;7.35;3.53;;;25.90;91.00;;;;;;5102328;27;37410;-60
2022/08/25 09:15:12;;;;;;;8.65;3.40;;;26.00;90.40;;;;;;5105339;27;36158;-60
2022/08/25 09:18:01;;;;;;;10.00;3.42;;;26.10;90.70;;;;;;5100297;27;38448;-60
2022/08/25 09:20:50;;;;;;;14.57;3.80;;;26.20;90.60;;;;;;5103569;27;37688;-60
2022/08/25 09:23:32;;;;;;;8.00;3.75;;;26.30;89.90;;;;;;5103452;27;37112;-60
2022/08/25 09:26:12;;;;;;;9.90;3.85;;;26.40;89.10;;;;;;5103244;27;37847;-60
2022/08/25 09:28:47;;;;;;;7.65;3.35;;;26.50;88.10;;;;;;5102557;27;36663;-60
2022/08/25 09:31:19;;;;;;;8.38;3.28;;;26.60;88.50;;;;;;5102587;27;37049;-60
2022/08/25 09:33:46;;;;;;;7.07;3.45;;;26.70;88.00;;;;;;5103343;27;36115;-60
2022/08/25 09:36:14;;;;;;;6.18;3.08;;;26.70;87.40;;;;;;5102752;27;37845;-60
2022/08/25 09:38:42;;;;;;;6.95;2.72;;;26.90;86.60;;;;;;5103695;27;36471;-60
2022/08/25 09:41:10;;;;;;;6.93;3.30;;;26.90;86.00;;;;;;5103761;27;35512;-60
2022/08/25 09:43:41;;;;;;;8.65;2.80;;;27.00;84.90;;;;;;5102440;27;36873;-60
2022/08/25 09:46:12;;;;;;;10.35;3.38;;;27.10;83.50;;;;;;5102780;27;37058;-60
2022/08/25 09:48:46;;;;;;;7.55;3.22;;;27.20;82.80;;;;;;5101916;27;36681;-60
2022/08/25 09:51:22;;;;;;;6.38;3.40;;;27.20;82.70;;;;;;5101174;27;37427;-60
2022/08/25 09:53:54;;;;;;;6.57;2.70;;;27.30;83.00;;;;;;5104032;27;37579;-61
2022/08/25 09:56:24;;;;;;;7.45;3.10;;;27.40;81.70;;;;;;5102289;27;36007;-60
2022/08/25 09:58:53;;;;;;;6.18;2.70;;;27.50;80.00;;;;;;5099594;27;36582;-60
2022/08/25 10:01:22;;;;;;;5.60;2.35;;;27.50;79.00;;;;;;5103374;27;37725;-60
2022/08/25 10:03:55;;;;;;;10.13;2.80;;;27.60;78.50;;;;;;5102379;27;39689;-60
2022/08/25 10:06:23;;;;;;;;;;;27.60;76.90;;;;;;5105141;27;37082;-60
2022/08/25 10:08:58;;;;;;;8.18;2.80;;;27.70;76.50;;;;;;5102329;27;37596;-60
2022/08/25 10:11:41;;;;;;;14.18;2.58;;;27.70;76.10;;;;;;5104915;27;38389;-60
2022/08/25 10:14:33;;;;;;;5.20;1.90;;;27.80;73.80;;;;;;5106552;27;37545;-60
2022/08/25 10:17:23;;;;;;;7.63;2.70;;;27.80;73.00;;;;;;5102900;27;35776;-60
2022/08/25 10:19:50;;;;;;;10.50;2.53;;;27.90;71.90;;;;;;5103516;27;36532;-60
2022/08/25 10:22:25;;;;;;;6.85;2.10;;;28.00;72.30;;;;;;5102525;27;39296;-60
2022/08/25 10:24:54;;;;;;;9.38;2.47;;;28.10;73.00;;;;;;5104798;27;37424;-60
2022/08/25 10:27:30;;;;;;;7.03;2.50;;;28.20;72.40;;;;;;5104189;27;37150;-60
2022/08/25 10:30:11;;;;;;;8.95;2.25;;;28.20;70.50;;;;;;5104692;27;37868;-61
2022/08/25 10:33:06;;;;;;;8.45;2.33;;;28.20;70.20;;;;;;5102031;27;38124;-61
2022/08/25 10:35:46;;;;;;;4.95;2.35;;;28.30;70.30;;;;;;5100135;27;38235;-60
2022/08/25 10:38:36;;;;;;;7.60;2.72;;;28.30;68.60;;;;;;5106515;27;39581;-61
2022/08/25 10:41:15;;;;;;;4.65;2.40;;;28.40;66.90;;;;;;5106544;27;38888;-60
2022/08/25 10:43:49;;;;;;;11.18;2.78;;;28.40;67.20;;;;;;5105325;27;37624;-61
2022/08/25 10:46:30;;;;;;;5.35;2.25;;;28.50;67.70;;;;;;5104981;27;37568;-60
2022/08/25 10:49:01;;;;;;;6.00;2.35;;;28.50;66.60;;;;;;5106211;27;37185;-61
2022/08/25 10:51:46;;;;;;;4.82;2.28;;;28.50;65.60;;;;;;5106894;27;37617;-60
2022/08/25 10:54:29;;;;;;;8.27;2.67;;;28.50;63.50;;;;;;5107153;27;38468;-60
2022/08/25 10:57:09;;;;;;;6.13;2.30;;;28.50;63.70;;;;;;5106424;27;37756;-61
2022/08/25 10:59:57;;;;;;;8.52;2.65;;;28.60;63.40;;;;;;5107067;27;36740;-61
2022/08/25 11:03:06;;;;;;;10.77;2.28;;;28.60;63.10;;;;;;5104553;27;36638;-61
2022/08/25 11:05:40;;;;;;;8.20;2.17;;;28.60;62.00;;;;;;5097407;27;36499;-60
2022/08/25 11:08:14;;;;;;;6.10;2.40;;;28.60;62.40;;;;;;5106321;27;37612;-61
2022/08/25 11:10:47;;;;;;;5.85;2.33;;;28.70;62.40;;;;;;5104180;27;36936;-60
2022/08/25 11:13:22;;;;;;;4.40;1.88;;;28.70;61.80;;;;;;5104817;27;35329;-60
2022/08/25 11:15:54;;;;;;;5.20;2.20;;;28.70;61.90;;;;;;5104416;27;38639;-60
2022/08/25 11:18:24;;;;;;;14.30;2.17;;;28.70;62.10;;;;;;5104350;27;38057;-61
2022/08/25 11:21:03;;;;;;;6.28;2.30;;;28.80;62.30;;;;;;5104685;27;35858;-60
2022/08/25 11:23:36;;;;;;;11.00;3.00;;;28.80;61.70;;;;;;5103392;27;37476;-60
2022/08/25 11:26:09;;;;;;;6.72;2.80;;;28.80;61.30;;;;;;5105418;27;37399;-61
2022/08/25 11:28:50;;;;;;;6.68;2.20;;;28.80;61.90;;;;;;5104853;27;38160;-60
2022/08/25 11:31:19;;;;;;;6.43;2.70;;;28.80;62.30;;;;;;5102998;27;37475;-61
2022/08/25 11:33:48;;;;;;;6.68;2.50;;;28.80;62.00;;;;;;5104610;27;37686;-60
2022/08/25 11:36:26;;;;;;;8.30;2.33;;;28.80;61.90;;;;;;5104921;27;37262;-61
2022/08/25 11:39:10;;;;;;;8.10;2.20;;;28.90;61.40;;;;;;5104348;27;37839;-61
2022/08/25 11:41:46;;;;;;;5.38;2.28;;;28.90;61.30;;;;;;5105182;27;35800;-61
2022/08/25 11:44:44;;;;;;;8.73;2.65;;;28.90;59.90;;;;;;5103140;27;37529;-61
2022/08/25 11:47:33;;;;;;;8.57;2.28;;;28.90;59.40;;;;;;5103544;27;38578;-60
2022/08/25 11:50:03;;;;;;;5.80;2.53;;;28.90;58.20;;;;;;5104089;27;38647;-61
2022/08/25 11:52:52;;;;;;;7.88;2.03;;;28.90;58.60;;;;;;5104911;27;38904;-61
2022/08/25 11:55:23;;;;;;;25.73;3.30;;;28.90;57.90;;;;;;5104523;27;36627;-60
2022/08/25 11:57:53;;;;;;;15.82;2.40;;;28.90;58.20;;;;;;5105017;27;37451;-61
2022/08/25 12:00:40;;;;;;;10.60;2.10;;;28.90;57.60;;;;;;5103746;27;37485;-61
2022/08/25 12:03:45;;;;;;;8.15;2.20;;;28.80;57.10;;;;;;5103819;27;37121;-60
2022/08/25 12:06:26;;;;;;;7.95;2.10;;;28.80;56.10;;;;;;5104521;27;35519;-60
2022/08/25 12:09:19;;;;;;;6.38;2.47;;;28.80;57.70;;;;;;5104947;27;38280;-61
2022/08/25 12:11:55;;;;;;;9.55;2.60;;;28.80;58.20;;;;;;5104447;27;36258;-61
2022/08/25 12:14:46;;;;;;;7.20;2.60;;;28.80;57.90;;;;;;5103084;27;38307;-60
2022/08/25 12:17:27;;;;;;;5.63;1.98;;;28.80;58.80;;;;;;5103872;27;37224;-60
2022/08/25 12:19:58;;;;;;;6.28;2.08;;;28.80;55.00;;;;;;5104838;27;36361;-61
2022/08/25 12:22:55;;;;;;;7.55;2.30;;;28.70;55.80;;;;;;5104280;27;38941;-61
2022/08/25 12:25:50;;;;;;;5.68;2.13;;;28.80;56.10;;;;;;5104513;27;36859;-60
2022/08/25 12:28:36;;;;;;;9.00;2.22;;;28.70;56.00;;;;;;5094482;27;35484;-60
2022/08/25 12:31:15;;;;;;;5.07;2.17;;;28.70;56.40;;;;;;5104173;27;39209;-60
2022/08/25 12:33:54;;;;;;;6.45;2.20;;;28.70;55.20;;;;;;5103670;27;37343;-60
2022/08/25 12:36:30;;;;;;;5.22;2.55;;;28.70;55.40;;;;;;5104209;27;36547;-60
2022/08/25 12:39:17;;;;;;;5.85;2.13;;;28.70;55.70;;;;;;5103398;27;36640;-60
2022/08/25 12:41:57;;;;;;;9.52;2.30;;;28.70;55.80;;;;;;5103668;27;37559;-60
2022/08/25 12:44:39;;;;;;;6.28;2.45;;;28.70;54.80;;;;;;5102960;27;39139;-61
2022/08/25 12:47:13;;;;;;;7.40;2.90;;;28.70;57.50;;;;;;5103565;27;39935;-60
2022/08/25 12:49:41;;;;;;;6.28;2.53;;;28.70;57.00;;;;;;5102964;27;36538;-60
2022/08/25 12:52:15;;;;;;;6.05;2.15;;;28.70;56.60;;;;;;5103187;27;38109;-60
2022/08/25 12:54:48;;;;;;;5.75;2.20;;;28.70;56.00;;;;;;5103756;27;37235;-60
2022/08/25 12:57:25;;;;;;;;;;;28.70;56.20;;;;;;5104337;27;39446;-61
2022/08/25 12:59:56;;;;;;;7.50;1.95;;;28.60;55.90;;;;;;5104754;27;36568;-61
2022/08/25 13:02:50;;;;;;;6.32;2.40;;;28.60;55.30;;;;;;5103340;27;37333;-60
2022/08/25 13:05:49;;;;;;;4.95;2.20;;;28.60;55.00;;;;;;5074298;27;37257;-61
2022/08/25 13:08:35;;;;;;;4.75;1.90;;;28.60;54.60;;;;;;5081579;27;38556;-61
2022/08/25 13:11:09;;;;;;;4.07;2.15;;;28.60;54.90;;;;;;5103275;27;36406;-60
2022/08/25 13:13:54;;;;;;;4.82;2.47;;;28.60;55.10;;;;;;5104401;27;37409;-61
2022/08/25 13:16:23;;;;;;;7.95;2.33;;;28.60;55.50;;;;;;5103606;27;36656;-60
2022/08/25 13:18:51;;;;;;;5.05;2.13;;;28.60;55.60;;;;;;5102942;27;35775;-61